Time;durP1;ratioP1;P1;durP2;ratioP2;P2;SDS_P1;SDS_P2;PMS_P1;PMS_P2;Temp;Humidity;BMP_temperature;BMP_pressure;BME280_temperature;BME280_humidity;BME280_pressure;Samples;Min_cycle;Max_cycle;Signal;HPM_P1;HPM_P2
2022/12/16 00:01:04;;;;;;;139.05;80.85;;;;;;;-1.84;87.15;99742.73;2730415;87;21023;-64
2022/12/16 00:05:07;;;;;;;118.87;71.67;;;;;;;-1.79;86.92;99742.96;2688805;87;21024;-63
2022/12/16 00:09:09;;;;;;;126.90;79.03;;;;;;;-1.72;86.84;99738.36;2692593;87;21044;-64
2022/12/16 00:13:10;;;;;;;115.20;70.42;;;;;;;-1.68;86.40;99734.70;2735060;87;21012;-64
2022/12/16 00:17:11;;;;;;;119.82;72.85;;;;;;;-1.69;86.03;99741.28;2731216;87;21027;-63
2022/12/16 00:21:13;;;;;;;118.90;67.90;;;;;;;-1.71;85.91;99723.10;2725189;87;21016;-64
2022/12/16 00:25:15;;;;;;;145.80;75.60;;;;;;;-1.72;85.70;99723.54;2709871;88;21016;-63
2022/12/16 00:29:29;;;;;;;149.23;84.10;;;;;;;-1.72;85.70;99723.54;2741635;85;21074;-64
2022/12/16 00:33:31;;;;;;;129.00;77.37;;;;;;;-1.71;85.63;99725.70;2733591;87;20996;-62
2022/12/16 00:37:46;;;;;;;138.07;83.95;;;;;;;-1.68;85.23;99714.28;2705050;87;21040;-63
2022/12/16 00:41:58;;;;;;;138.20;81.10;;;;;;;-1.80;85.96;99702.59;2744919;86;21044;-63
2022/12/16 00:46:00;;;;;;;118.65;74.45;;;;;;;-1.80;85.96;99702.59;2716854;87;21016;-63
2022/12/16 00:50:01;;;;;;;145.80;85.20;;;;;;;-1.89;86.64;99698.59;2751537;85;21060;-63
2022/12/16 00:54:15;;;;;;;145.55;83.60;;;;;;;-1.96;87.04;99691.94;2739860;86;21015;-64
2022/12/16 00:58:16;;;;;;;139.20;81.28;;;;;;;-2.04;87.58;99693.53;2739805;86;21062;-66
2022/12/16 01:02:18;;;;;;;133.25;80.28;;;;;;;-2.24;88.41;99681.30;2711273;86;21045;-63
2022/12/16 01:06:26;;;;;;;136.95;80.25;;;;;;;-2.41;89.45;99680.62;2728696;86;21024;-63
2022/12/16 01:10:27;;;;;;;131.65;77.50;;;;;;;-2.51;90.48;99688.80;2737231;86;21024;-65
2022/12/16 01:14:29;;;;;;;138.55;77.82;;;;;;;-2.59;91.39;99690.81;2748606;86;21063;-63
2022/12/16 01:19:15;;;;;;;130.20;74.00;;;;;;;-2.56;92.20;99707.62;2754129;86;21023;-62
2022/12/16 01:23:18;;;;;;;138.88;78.45;;;;;;;-2.53;92.38;99708.84;2729023;86;31687;-62
2022/12/16 01:27:19;;;;;;;128.85;80.32;;;;;;;-2.44;92.43;99712.39;2744638;86;21012;-63
2022/12/16 01:31:22;;;;;;;126.67;76.92;;;;;;;-2.31;92.34;99717.16;2754253;86;20968;-62
2022/12/16 01:35:23;;;;;;;122.85;76.12;;;;;;;-2.22;91.87;99705.06;2754089;86;21595;-63
2022/12/16 01:39:26;;;;;;;122.90;75.45;;;;;;;-2.18;91.74;99687.09;2708133;86;21019;-62
2022/12/16 01:43:34;;;;;;;137.68;75.87;;;;;;;-2.16;91.62;99693.12;2734004;86;21308;-63
2022/12/16 01:47:43;;;;;;;132.95;77.47;;;;;;;-2.12;91.35;99687.31;2727326;87;21034;-64
2022/12/16 01:51:46;;;;;;;117.37;76.12;;;;;;;-2.08;91.17;99679.77;2745726;86;21091;-62
2022/12/16 01:55:56;;;;;;;135.00;75.15;;;;;;;-2.08;91.25;99690.19;2697046;87;21024;-63
2022/12/16 01:59:59;;;;;;;116.67;72.55;;;;;;;-2.06;91.19;99692.75;2716335;86;21078;-63
2022/12/16 02:04:07;;;;;;;131.20;77.10;;;;;;;-1.97;91.25;99688.94;2746238;85;21004;-64
2022/12/16 02:08:19;;;;;;;119.55;72.10;;;;;;;-1.98;91.12;99679.42;2746461;86;21007;-62
2022/12/16 02:12:35;;;;;;;119.37;72.32;;;;;;;-1.95;91.11;99680.16;2720543;85;21057;-63
2022/12/16 02:16:57;;;;;;;98.37;54.27;;;;;;;-1.84;91.06;99681.47;2746485;86;21042;-64
2022/12/16 02:21:26;;;;;;;108.57;67.12;;;;;;;-1.71;90.59;99672.25;2738544;85;21052;-64
2022/12/16 02:26:14;;;;;;;130.67;76.60;;;;;;;-1.71;90.59;99672.25;2745777;86;21015;-64
2022/12/16 02:30:37;;;;;;;125.42;73.92;;;;;;;-1.61;90.32;99676.16;2718579;86;21033;-65
2022/12/16 02:35:13;;;;;;;106.25;65.75;;;;;;;-1.55;89.51;99659.41;2628491;89;21069;-65
2022/12/16 02:39:38;;;;;;;117.97;72.60;;;;;;;-1.49;89.34;99654.40;2607590;90;21107;-63
2022/12/16 02:44:06;;;;;;;114.00;67.67;;;;;;;-1.42;89.33;99645.39;2633548;89;21038;-62
2022/12/16 02:48:07;;;;;;;125.02;71.20;;;;;;;-1.34;89.35;99644.63;2639986;90;21020;-63
2022/12/16 02:52:09;;;;;;;113.77;68.02;;;;;;;-1.28;89.09;99637.44;2640987;90;21062;-62
2022/12/16 02:56:42;;;;;;;112.77;67.53;;;;;;;-1.16;88.67;99630.39;2632663;85;21003;-64
2022/12/16 03:01:01;;;;;;;113.52;70.15;;;;;;;-1.16;88.67;99630.39;2633278;90;21081;-62
2022/12/16 03:05:17;;;;;;;115.88;68.22;;;;;;;-1.04;88.47;99641.58;2610264;90;21057;-64
2022/12/16 03:09:24;;;;;;;118.97;68.65;;;;;;;-0.94;88.34;99634.66;2658400;86;21014;-63
2022/12/16 03:13:30;;;;;;;111.32;64.90;;;;;;;-0.85;87.51;99631.62;2752182;85;21063;-62
2022/12/16 03:17:33;;;;;;;125.97;65.15;;;;;;;-0.86;86.85;99626.01;2752726;85;21034;-63
2022/12/16 03:21:47;;;;;;;109.10;63.30;;;;;;;-0.85;86.68;99624.26;2727162;86;21014;-65
2022/12/16 03:25:53;;;;;;;105.03;62.83;;;;;;;-0.90;86.25;99627.07;2738936;85;21016;-63
2022/12/16 03:30:19;;;;;;;102.27;69.90;;;;;;;-0.91;86.38;99621.46;2744356;86;21019;-63
2022/12/16 03:38:51;;;;;;;112.20;64.67;;;;;;;-0.87;85.79;99623.01;2753294;86;21053;-62
2022/12/16 03:42:54;;;;;;;107.65;60.35;;;;;;;-0.86;85.19;99619.48;2746617;86;21109;-65
2022/12/16 03:47:06;;;;;;;89.52;56.88;;;;;;;-0.86;85.19;99619.48;2732984;87;21253;-65
2022/12/16 03:51:08;;;;;;;92.37;58.30;;;;;;;-0.82;85.42;99614.50;2721529;87;21085;-63
2022/12/16 03:55:09;;;;;;;108.22;57.25;;;;;;;-0.80;85.00;99604.00;2714507;87;21051;-63
2022/12/16 03:59:17;;;;;;;98.30;59.67;;;;;;;-0.79;84.60;99603.08;2674710;86;21042;-64
2022/12/16 04:03:21;;;;;;;97.12;57.13;;;;;;;-0.83;84.16;99603.67;2732474;87;21091;-62
2022/12/16 04:07:23;;;;;;;98.07;57.17;;;;;;;-0.94;84.70;99588.97;2718554;87;20976;-62
2022/12/16 04:24:35;;;;;;;112.28;61.85;;;;;;;-0.85;84.36;99622.48;2680951;88;21105;-63
2022/12/16 04:28:36;;;;;;;103.12;65.97;;;;;;;-0.81;84.48;99627.95;2711829;87;21028;-65
